createdAt,value
2023-01-08T00:00:08.213Z,17.20
2023-01-08T00:02:35.120Z,13.07
2023-01-08T00:05:01.890Z,11.07
2023-01-08T00:07:28.572Z,12.87
2023-01-08T00:09:55.386Z,18.47
2023-01-08T00:12:22.263Z,12.57
2023-01-08T00:14:49.004Z,15.70
2023-01-08T00:17:15.860Z,12.83
2023-01-08T00:19:43.266Z,17.60
2023-01-08T00:22:10.427Z,12.63
2023-01-08T00:24:37.305Z,17.00
2023-01-08T00:27:04.162Z,18.07
2023-01-08T00:29:31.240Z,15.53
2023-01-08T00:31:58.074Z,15.27
2023-01-08T00:34:24.833Z,16.50
2023-01-08T00:36:51.545Z,13.23
2023-01-08T00:39:18.285Z,14.23
2023-01-08T00:41:46.009Z,7.97
2023-01-08T00:44:12.763Z,11.03
2023-01-08T00:46:39.473Z,12.77
2023-01-08T00:49:06.289Z,12.73
2023-01-08T00:51:33.423Z,9.83
2023-01-08T00:54:00.206Z,12.50
2023-01-08T00:56:27.009Z,14.03
2023-01-08T00:58:53.846Z,13.83
2023-01-08T01:01:20.664Z,14.50
2023-01-08T01:03:47.632Z,13.00
2023-01-08T01:06:14.542Z,12.70
2023-01-08T01:08:41.653Z,12.60
2023-01-08T01:11:18.836Z,10.77
2023-01-08T01:13:45.583Z,10.30
2023-01-08T01:16:12.270Z,8.93
2023-01-08T01:18:39.080Z,10.60
2023-01-08T01:21:38.126Z,10.17
2023-01-08T01:24:06.981Z,11.30
2023-01-08T01:26:35.028Z,12.90
2023-01-08T01:29:02.281Z,11.50
2023-01-08T01:31:30.781Z,14.00
2023-01-08T01:33:58.094Z,10.80
2023-01-08T01:36:25.988Z,13.73
2023-01-08T01:38:55.219Z,11.73
2023-01-08T01:41:32.034Z,10.17
2023-01-08T01:44:38.978Z,12.60
2023-01-08T01:47:24.564Z,14.93
2023-01-08T01:50:06.039Z,13.67
2023-01-08T01:52:38.293Z,9.53
2023-01-08T01:55:06.669Z,17.42
2023-01-08T01:57:33.620Z,11.33
2023-01-08T02:00:05.213Z,11.97
2023-01-08T02:02:32.917Z,13.00
2023-01-08T02:05:01.411Z,14.00
2023-01-08T02:07:48.327Z,13.57
2023-01-08T02:10:45.804Z,13.90
2023-01-08T02:13:20.785Z,13.17
2023-01-08T02:16:07.202Z,9.27
2023-01-08T02:19:23.081Z,17.10
2023-01-08T02:22:14.562Z,13.00
2023-01-08T02:25:03.091Z,15.07
2023-01-08T02:27:32.061Z,15.47
2023-01-08T02:29:59.663Z,13.30
2023-01-08T02:32:28.378Z,15.30
2023-01-08T02:34:55.691Z,9.27
2023-01-08T02:37:22.408Z,10.80
2023-01-08T02:40:10.704Z,13.83
2023-01-08T02:43:07.659Z,14.67
2023-01-08T02:45:47.360Z,17.20
2023-01-08T02:48:36.327Z,11.57
2023-01-08T02:51:12.219Z,19.03
2023-01-08T02:53:44.284Z,11.07
2023-01-08T02:56:23.673Z,12.82
2023-01-08T02:58:53.097Z,15.97
2023-01-08T03:01:23.011Z,16.87
2023-01-08T03:03:57.074Z,14.43
2023-01-08T03:06:25.312Z,18.93
2023-01-08T03:08:53.671Z,15.20
2023-01-08T03:11:23.163Z,12.50
2023-01-08T03:14:12.111Z,17.60
2023-01-08T03:16:40.816Z,24.20
2023-01-08T03:19:31.811Z,16.70
2023-01-08T03:21:59.942Z,11.10
2023-01-08T03:24:31.991Z,15.83
2023-01-08T03:27:03.314Z,15.13
2023-01-08T03:29:31.855Z,12.53
2023-01-08T03:32:04.987Z,13.27
2023-01-08T03:34:33.506Z,12.80
2023-01-08T03:37:04.744Z,21.20
2023-01-08T03:39:45.079Z,18.97
2023-01-08T03:42:15.237Z,12.10
2023-01-08T03:44:42.105Z,14.57
2023-01-08T03:47:11.331Z,12.73
2023-01-08T03:49:40.568Z,13.93
2023-01-08T03:52:07.405Z,17.70
2023-01-08T03:54:36.604Z,13.37
2023-01-08T03:57:03.485Z,10.67
2023-01-08T03:59:30.147Z,16.23
2023-01-08T04:01:57.049Z,21.63
2023-01-08T04:04:24.043Z,10.97
2023-01-08T04:06:52.445Z,15.83
2023-01-08T04:09:19.311Z,18.63
2023-01-08T04:11:46.025Z,18.87
2023-01-08T04:14:12.773Z,14.63
2023-01-08T04:16:39.616Z,12.10
2023-01-08T04:19:06.284Z,14.07
2023-01-08T04:21:33.025Z,13.67
2023-01-08T04:23:59.814Z,15.40
2023-01-08T04:26:26.546Z,15.00
2023-01-08T04:28:53.233Z,14.60
2023-01-08T04:31:20.066Z,14.03
2023-01-08T04:33:46.896Z,13.53
2023-01-08T04:36:13.797Z,14.53
2023-01-08T04:38:40.531Z,15.80
2023-01-08T04:41:07.616Z,14.63
2023-01-08T04:43:34.484Z,18.63
2023-01-08T04:46:02.770Z,16.27
2023-01-08T04:48:30.814Z,16.87
2023-01-08T04:51:01.093Z,12.93
2023-01-08T04:53:29.134Z,17.23
2023-01-08T04:55:56.087Z,13.07
2023-01-08T04:58:23.018Z,19.47
2023-01-08T05:00:49.914Z,19.87
2023-01-08T05:03:16.766Z,19.83
2023-01-08T05:05:43.567Z,19.43
2023-01-08T05:08:10.465Z,17.73
2023-01-08T05:10:37.292Z,18.57
2023-01-08T05:13:03.907Z,21.47
2023-01-08T05:15:30.971Z,25.90
2023-01-08T05:18:02.927Z,20.13
2023-01-08T05:20:30.207Z,16.70
2023-01-08T05:23:00.668Z,20.83
2023-01-08T05:25:27.524Z,16.00
2023-01-08T05:27:54.250Z,20.17
2023-01-08T05:30:21.006Z,19.17
2023-01-08T05:32:47.786Z,17.30
2023-01-08T05:35:14.491Z,18.30
2023-01-08T05:37:41.304Z,15.67
2023-01-08T05:40:08.577Z,20.00
2023-01-08T05:42:35.814Z,19.53
2023-01-08T05:45:07.465Z,19.67
2023-01-08T05:47:35.308Z,18.17
2023-01-08T05:50:02.329Z,15.40
2023-01-08T05:52:29.404Z,17.70
2023-01-08T05:55:00.260Z,18.50
2023-01-08T05:57:26.991Z,20.30
2023-01-08T05:59:53.719Z,16.20
2023-01-08T06:02:20.596Z,14.20
2023-01-08T06:04:47.338Z,18.20
2023-01-08T06:07:14.177Z,21.33
2023-01-08T06:09:40.836Z,16.07
2023-01-08T06:12:07.684Z,18.53
2023-01-08T06:14:34.456Z,21.90
2023-01-08T06:17:01.229Z,19.90
2023-01-08T06:19:28.195Z,14.23
2023-01-08T06:21:54.946Z,14.50
2023-01-08T06:24:21.606Z,9.87
2023-01-08T06:26:48.234Z,12.53
2023-01-08T06:29:15.102Z,13.17
2023-01-08T06:31:41.837Z,16.87
2023-01-08T06:34:08.513Z,14.63
2023-01-08T06:36:35.380Z,8.97
2023-01-08T06:39:03.226Z,12.00
2023-01-08T06:41:29.855Z,10.30
2023-01-08T06:43:56.637Z,15.50
2023-01-08T06:46:23.360Z,7.13
2023-01-08T06:48:50.062Z,15.00
2023-01-08T06:51:16.849Z,9.93
2023-01-08T06:53:43.697Z,11.00
2023-01-08T06:56:11.121Z,7.57
2023-01-08T06:58:39.277Z,9.10
2023-01-08T07:01:06.740Z,12.17
2023-01-08T07:03:33.385Z,8.90
2023-01-08T07:07:00.107Z,8.00
2023-01-08T07:13:22.933Z,12.18
2023-01-08T07:15:49.693Z,12.37
2023-01-08T07:18:16.524Z,11.57
2023-01-08T07:20:43.384Z,9.33
2023-01-08T07:23:11.818Z,10.33
2023-01-08T07:25:38.488Z,11.47
2023-01-08T07:28:05.496Z,7.70
2023-01-08T07:30:32.273Z,8.90
2023-01-08T07:33:00.470Z,11.80
2023-01-08T07:35:27.851Z,7.40
2023-01-08T07:37:54.688Z,11.23
2023-01-08T07:40:21.341Z,12.37
2023-01-08T07:42:48.198Z,7.47
2023-01-08T07:45:15.150Z,13.10
2023-01-08T07:47:41.792Z,7.53
2023-01-08T07:50:09.399Z,9.90
2023-01-08T07:52:36.183Z,10.67
2023-01-08T07:55:02.837Z,7.50
2023-01-08T07:57:30.010Z,7.00
2023-01-08T07:59:56.851Z,9.17
2023-01-08T08:02:23.627Z,6.87
2023-01-08T08:04:50.489Z,8.40
2023-01-08T08:07:17.647Z,6.90
2023-01-08T08:09:44.318Z,5.80
2023-01-08T08:12:11.120Z,9.10
2023-01-08T08:14:37.830Z,8.57
2023-01-08T08:17:04.519Z,8.50
2023-01-08T08:19:31.307Z,5.03
2023-01-08T08:21:58.160Z,10.30
2023-01-08T08:24:24.765Z,9.90
2023-01-08T08:26:51.696Z,7.93
2023-01-08T08:29:18.520Z,11.20
2023-01-08T08:31:45.320Z,7.30
2023-01-08T08:34:12.138Z,7.87
2023-01-08T08:36:38.813Z,7.97
2023-01-08T08:39:05.441Z,4.93
2023-01-08T08:41:32.252Z,7.60
2023-01-08T08:43:58.858Z,5.03
2023-01-08T08:46:26.182Z,6.17
2023-01-08T08:48:53.142Z,5.63
2023-01-08T08:51:19.778Z,5.33
2023-01-08T08:53:46.548Z,5.97
2023-01-08T08:56:13.460Z,6.93
2023-01-08T08:58:42.048Z,12.03
2023-01-08T09:01:08.899Z,6.67
2023-01-08T09:03:35.773Z,3.33
2023-01-08T09:06:02.481Z,7.20
2023-01-08T09:08:29.485Z,3.40
2023-01-08T09:10:56.463Z,4.97
2023-01-08T09:13:23.153Z,4.93
2023-01-08T09:15:50.001Z,5.07
2023-01-08T09:18:16.874Z,7.33
2023-01-08T09:20:43.541Z,4.03
2023-01-08T09:23:10.347Z,2.93
2023-01-08T09:25:37.161Z,4.60
2023-01-08T09:28:07.012Z,6.87
2023-01-08T09:30:33.994Z,11.33
2023-01-08T09:33:02.876Z,6.17
2023-01-08T09:35:30.861Z,8.73
2023-01-08T09:37:57.921Z,10.60
2023-01-08T09:40:31.641Z,7.37
2023-01-08T09:43:03.023Z,7.13
2023-01-08T09:45:36.352Z,7.03
2023-01-08T09:48:13.675Z,3.83
2023-01-08T09:50:40.613Z,4.10
2023-01-08T09:53:13.205Z,7.43
2023-01-08T09:55:40.782Z,3.53
2023-01-08T09:58:39.502Z,8.37
2023-01-08T10:01:07.375Z,6.67
2023-01-08T10:03:44.074Z,4.47
2023-01-08T10:06:13.519Z,8.57
2023-01-08T10:08:40.623Z,6.53
2023-01-08T10:11:09.162Z,5.93
2023-01-08T10:13:39.231Z,4.03
2023-01-08T10:16:09.393Z,2.60
2023-01-08T10:18:37.527Z,4.40
2023-01-08T10:21:04.713Z,7.73
2023-01-08T10:23:31.455Z,5.13
2023-01-08T10:26:02.815Z,11.43
2023-01-08T10:28:32.026Z,3.10
2023-01-08T10:31:19.005Z,4.27
2023-01-08T10:33:49.493Z,5.60
2023-01-08T10:36:19.679Z,3.50
2023-01-08T10:38:59.442Z,3.57
2023-01-08T10:41:27.287Z,2.27
2023-01-08T10:44:01.151Z,2.53
2023-01-08T10:46:32.349Z,2.70
2023-01-08T10:49:02.691Z,7.23
2023-01-08T10:51:31.460Z,6.27
2023-01-08T10:54:27.418Z,2.90
2023-01-08T10:56:54.250Z,6.50
2023-01-08T10:59:23.070Z,3.57
2023-01-08T11:01:52.757Z,5.07
2023-01-08T11:04:23.903Z,7.20
2023-01-08T11:06:50.620Z,3.97
2023-01-08T11:09:25.784Z,4.67
2023-01-08T11:11:52.512Z,5.17
2023-01-08T11:14:31.077Z,5.40
2023-01-08T11:16:58.726Z,4.57
2023-01-08T11:19:29.473Z,3.70
2023-01-08T11:21:59.132Z,5.70
2023-01-08T11:24:32.406Z,5.23
2023-01-08T11:27:05.203Z,5.93
2023-01-08T11:29:49.229Z,5.90
2023-01-08T11:32:15.969Z,4.50
2023-01-08T11:34:50.451Z,3.00
2023-01-08T11:37:35.867Z,5.00
2023-01-08T11:40:02.791Z,8.73
2023-01-08T11:43:13.911Z,6.33
2023-01-08T11:45:55.867Z,4.70
2023-01-08T11:48:45.209Z,8.80
2023-01-08T11:51:36.369Z,6.53
2023-01-08T11:54:33.272Z,6.90
2023-01-08T11:57:11.848Z,6.93
2023-01-08T11:59:44.500Z,5.07
2023-01-08T12:02:34.388Z,11.73
2023-01-08T12:05:23.119Z,5.80
2023-01-08T12:08:18.689Z,6.90
2023-01-08T12:11:11.782Z,6.10
2023-01-08T12:13:53.490Z,9.68
2023-01-08T12:16:41.729Z,7.53
2023-01-08T12:19:28.439Z,10.30
2023-01-08T12:22:23.846Z,7.80
2023-01-08T12:25:19.134Z,7.33
2023-01-08T12:27:58.919Z,9.17
2023-01-08T12:30:38.412Z,4.63
2023-01-08T12:33:17.037Z,7.43
2023-01-08T12:35:51.291Z,5.43
2023-01-08T12:38:21.134Z,5.33
2023-01-08T12:40:55.757Z,6.60
2023-01-08T12:43:28.827Z,10.37
2023-01-08T12:48:29.252Z,4.77
2023-01-08T12:51:07.673Z,9.63
2023-01-08T12:54:07.955Z,5.67
2023-01-08T12:57:10.231Z,6.63
2023-01-08T12:59:59.482Z,9.70
2023-01-08T13:02:56.609Z,6.77
2023-01-08T13:05:23.349Z,6.70
2023-01-08T13:07:54.520Z,4.40
2023-01-08T13:10:24.311Z,6.00
2023-01-08T13:12:52.483Z,7.80
2023-01-08T13:15:27.859Z,6.83
2023-01-08T13:17:57.217Z,5.40
2023-01-08T13:20:32.377Z,7.77
2023-01-08T13:23:04.347Z,10.17
2023-01-08T13:25:37.499Z,8.23
2023-01-08T13:28:35.337Z,4.67
2023-01-08T13:31:20.433Z,6.60
2023-01-08T13:33:52.692Z,7.63
2023-01-08T13:36:24.674Z,6.15
2023-01-08T13:39:10.027Z,6.23
2023-01-08T13:42:03.169Z,8.57
2023-01-08T13:44:34.574Z,7.63
2023-01-08T13:47:24.654Z,11.60
2023-01-08T13:49:54.528Z,7.57
2023-01-08T13:52:33.226Z,7.90
2023-01-08T13:55:04.126Z,4.93
2023-01-08T13:57:39.707Z,7.57
2023-01-08T14:00:09.880Z,6.63
2023-01-08T14:02:50.443Z,5.87
2023-01-08T14:05:25.452Z,3.53
2023-01-08T14:07:52.752Z,6.60
2023-01-08T14:10:20.937Z,6.63
2023-01-08T14:12:48.596Z,6.87
2023-01-08T14:15:36.196Z,6.33
2023-01-08T14:18:05.179Z,5.03
2023-01-08T14:20:34.706Z,5.10
2023-01-08T14:23:03.371Z,7.23
2023-01-08T14:25:30.620Z,2.87
2023-01-08T14:28:00.487Z,7.80
2023-01-08T14:30:27.777Z,5.63
2023-01-08T14:32:57.418Z,5.57
2023-01-08T14:35:32.764Z,6.30
2023-01-08T14:38:01.687Z,8.50
2023-01-08T14:40:36.203Z,6.27
2023-01-08T14:43:08.505Z,6.03
2023-01-08T14:45:38.496Z,3.17
2023-01-08T14:48:22.385Z,4.13
2023-01-08T14:51:03.469Z,6.63
2023-01-08T14:53:58.637Z,4.73
2023-01-08T14:56:30.328Z,5.60
2023-01-08T14:58:58.337Z,5.97
2023-01-08T15:01:30.196Z,7.40
2023-01-08T15:04:07.780Z,3.97
2023-01-08T15:06:34.460Z,4.80
2023-01-08T15:09:01.244Z,4.80
2023-01-08T15:11:31.559Z,5.43
2023-01-08T15:13:58.827Z,4.93
2023-01-08T15:16:31.792Z,5.10
2023-01-08T15:21:31.072Z,3.07
2023-01-08T15:24:00.271Z,3.43
2023-01-08T15:26:27.424Z,7.33
2023-01-08T15:28:58.199Z,5.47
2023-01-08T15:31:51.511Z,10.13
2023-01-08T15:34:21.324Z,10.43
2023-01-08T15:36:48.154Z,7.27
2023-01-08T15:39:15.099Z,8.60
2023-01-08T15:42:00.309Z,6.43
2023-01-08T15:44:27.119Z,7.23
2023-01-08T15:46:54.377Z,9.23
2023-01-08T15:49:21.086Z,5.13
2023-01-08T15:51:50.139Z,8.93
2023-01-08T15:54:17.144Z,6.07
2023-01-08T15:56:43.949Z,8.43
2023-01-08T15:59:12.063Z,5.83
2023-01-08T16:01:38.916Z,6.00
2023-01-08T16:04:05.700Z,6.03
2023-01-08T16:06:32.632Z,9.27
2023-01-08T16:09:01.413Z,6.87
2023-01-08T16:11:28.263Z,10.70
2023-01-08T16:13:55.439Z,9.37
2023-01-08T16:16:22.388Z,14.97
2023-01-08T16:18:49.426Z,7.33
2023-01-08T16:21:16.358Z,10.83
2023-01-08T16:23:43.018Z,7.50
2023-01-08T16:26:12.296Z,9.17
2023-01-08T16:28:39.839Z,7.33
2023-01-08T16:31:07.531Z,5.87
2023-01-08T16:33:34.544Z,8.37
2023-01-08T16:36:03.916Z,9.73
2023-01-08T16:38:33.338Z,6.80
2023-01-08T16:41:00.684Z,10.67
2023-01-08T16:43:30.192Z,5.83
2023-01-08T16:45:57.024Z,2.37
2023-01-08T16:48:23.841Z,8.17
2023-01-08T16:50:50.640Z,9.93
2023-01-08T16:53:21.992Z,7.83
2023-01-08T16:55:59.873Z,7.45
2023-01-08T16:58:26.524Z,5.37
2023-01-08T17:00:53.393Z,5.90
2023-01-08T17:03:21.016Z,9.03
2023-01-08T17:05:48.253Z,7.47
2023-01-08T17:08:16.440Z,4.70
2023-01-08T17:10:44.118Z,5.07
2023-01-08T17:13:10.818Z,5.20
2023-01-08T17:15:38.549Z,5.33
2023-01-08T17:18:05.894Z,5.53
2023-01-08T17:20:32.696Z,9.03
2023-01-08T17:23:01.475Z,6.07
2023-01-08T17:25:28.496Z,4.80
2023-01-08T17:27:55.442Z,4.17
2023-01-08T17:30:22.201Z,4.77
2023-01-08T17:32:48.991Z,8.60
2023-01-08T17:35:26.559Z,4.57
2023-01-08T17:37:53.313Z,7.33
2023-01-08T17:40:19.945Z,4.73
2023-01-08T17:42:46.613Z,5.97
2023-01-08T17:45:13.489Z,7.33
2023-01-08T17:47:40.209Z,5.80
2023-01-08T17:50:07.165Z,4.97
2023-01-08T17:52:33.962Z,5.47
2023-01-08T17:55:00.642Z,3.27
2023-01-08T17:57:31.456Z,5.17
2023-01-08T17:59:59.044Z,2.60
2023-01-08T18:02:25.971Z,4.70
2023-01-08T18:05:52.724Z,6.90
2023-01-08T18:09:19.291Z,3.53
2023-01-08T18:11:46.053Z,9.17
2023-01-08T18:14:13.523Z,5.13
2023-01-08T18:16:45.378Z,4.30
2023-01-08T18:19:12.738Z,6.57
2023-01-08T18:21:39.415Z,3.70
2023-01-08T18:24:06.511Z,3.20
2023-01-08T18:26:33.299Z,3.63
2023-01-08T18:29:00.155Z,5.47
2023-01-08T18:31:27.093Z,4.37
2023-01-08T18:33:53.904Z,5.40
2023-01-08T18:36:21.317Z,5.37
2023-01-08T18:38:48.806Z,6.60
2023-01-08T18:41:56.495Z,5.50
2023-01-08T18:44:23.349Z,5.70
2023-01-08T18:46:52.365Z,10.40
2023-01-08T18:49:20.382Z,9.07
2023-01-08T18:51:47.070Z,8.47
2023-01-08T18:54:13.926Z,7.43
2023-01-08T18:56:40.661Z,8.57
2023-01-08T18:59:07.680Z,5.83
2023-01-08T19:01:36.132Z,3.57
2023-01-08T19:04:03.564Z,5.53
2023-01-08T19:06:30.583Z,11.20
2023-01-08T19:08:59.002Z,8.33
2023-01-08T19:11:26.102Z,10.83
2023-01-08T19:13:57.589Z,8.47
2023-01-08T19:16:24.880Z,7.20
2023-01-08T19:18:51.684Z,11.10
2023-01-08T19:21:19.709Z,8.37
2023-01-08T19:23:47.366Z,6.03
2023-01-08T19:26:14.756Z,8.63
2023-01-08T19:28:42.991Z,6.50
2023-01-08T19:31:13.742Z,7.07
2023-01-08T19:33:41.020Z,6.07
2023-01-08T19:36:12.601Z,5.87
2023-01-08T19:38:40.694Z,8.93
2023-01-08T19:41:26.722Z,3.80
2023-01-08T19:43:56.809Z,8.73
2023-01-08T19:46:24.025Z,6.13
2023-01-08T19:48:51.020Z,6.47
2023-01-08T19:51:17.999Z,8.63
2023-01-08T19:53:44.656Z,5.00
2023-01-08T19:56:13.676Z,5.90
2023-01-08T19:58:40.632Z,5.30
2023-01-08T20:01:20.674Z,5.77
2023-01-08T20:03:48.106Z,6.00
2023-01-08T20:06:20.800Z,9.27
2023-01-08T20:08:53.196Z,7.50
2023-01-08T20:11:21.322Z,5.05
2023-01-08T20:13:51.865Z,6.77
2023-01-08T20:16:20.750Z,9.13
2023-01-08T20:18:47.866Z,5.87
2023-01-08T20:21:21.865Z,8.50
2023-01-08T20:23:49.176Z,5.90
2023-01-08T20:26:18.097Z,12.67
2023-01-08T20:28:46.320Z,5.80
2023-01-08T20:31:18.149Z,9.13
2023-01-08T20:33:45.554Z,11.67
2023-01-08T20:36:23.554Z,12.77
2023-01-08T20:38:55.963Z,8.77
2023-01-08T20:41:23.075Z,13.07
2023-01-08T20:43:50.397Z,5.37
2023-01-08T20:46:17.207Z,11.53
2023-01-08T20:48:47.774Z,10.70
2023-01-08T20:51:15.860Z,10.17
2023-01-08T20:53:42.756Z,8.13
2023-01-08T20:56:14.307Z,8.57
2023-01-08T20:58:45.960Z,7.10
2023-01-08T21:01:19.156Z,5.60
2023-01-08T21:03:47.592Z,7.40
2023-01-08T21:06:20.885Z,10.37
2023-01-08T21:08:49.385Z,9.80
2023-01-08T21:11:17.231Z,4.50
2023-01-08T21:13:44.020Z,9.07
2023-01-08T21:16:16.624Z,6.43
2023-01-08T21:18:50.374Z,7.65
2023-01-08T21:21:23.493Z,11.43
2023-01-08T21:23:50.769Z,5.50
2023-01-08T21:26:18.537Z,8.53
2023-01-08T21:28:46.422Z,8.43
2023-01-08T21:31:16.927Z,6.80
2023-01-08T21:33:47.750Z,5.17
2023-01-08T21:36:18.291Z,5.40
2023-01-08T21:38:45.508Z,7.50
2023-01-08T21:41:42.440Z,11.40
2023-01-08T21:44:39.245Z,9.00
2023-01-08T21:47:10.671Z,9.13
2023-01-08T21:49:37.507Z,5.63
2023-01-08T21:52:23.928Z,6.63
2023-01-08T21:54:51.431Z,8.47
2023-01-08T21:57:18.643Z,7.70
2023-01-08T21:59:45.552Z,9.10
2023-01-08T22:02:17.080Z,8.80
2023-01-08T22:04:44.711Z,6.93
2023-01-08T22:07:15.056Z,7.37
2023-01-08T22:09:41.728Z,8.10
2023-01-08T22:12:08.803Z,7.53
2023-01-08T22:14:35.983Z,8.27
2023-01-08T22:17:04.288Z,9.67
2023-01-08T22:19:31.102Z,6.67
2023-01-08T22:21:57.975Z,6.50
2023-01-08T22:24:24.707Z,8.10
2023-01-08T22:26:51.405Z,9.67
2023-01-08T22:29:18.180Z,5.37
2023-01-08T22:31:44.947Z,6.20
2023-01-08T22:34:17.258Z,7.43
2023-01-08T22:36:49.532Z,7.85
2023-01-08T22:39:16.389Z,7.20
2023-01-08T22:41:44.608Z,10.33
2023-01-08T22:44:12.643Z,5.67
2023-01-08T22:46:39.425Z,5.23
2023-01-08T22:49:06.522Z,9.83
2023-01-08T22:51:33.561Z,6.57
2023-01-08T22:54:00.536Z,10.63
2023-01-08T22:56:27.249Z,5.00
2023-01-08T22:58:54.291Z,5.97
2023-01-08T23:01:23.630Z,9.50
2023-01-08T23:03:57.539Z,8.87
2023-01-08T23:06:26.438Z,8.23
2023-01-08T23:08:54.031Z,6.93
2023-01-08T23:11:23.627Z,9.63
2023-01-08T23:13:53.320Z,10.07
2023-01-08T23:16:24.479Z,8.33
2023-01-08T23:18:52.111Z,11.63
2023-01-08T23:21:21.161Z,10.17
2023-01-08T23:23:48.074Z,5.87
2023-01-08T23:26:21.230Z,10.27
2023-01-08T23:28:49.011Z,7.63
2023-01-08T23:31:19.380Z,9.37
2023-01-08T23:33:46.710Z,6.20
2023-01-08T23:36:18.558Z,12.90
2023-01-08T23:38:47.232Z,8.47
2023-01-08T23:41:14.859Z,5.77
2023-01-08T23:43:43.333Z,7.53
2023-01-08T23:46:10.842Z,8.30
2023-01-08T23:48:37.527Z,7.50
2023-01-08T23:51:04.268Z,5.23
2023-01-08T23:53:42.526Z,9.27
2023-01-08T23:56:09.202Z,7.43
2023-01-08T23:58:36.526Z,10.73
